M I D A S
Marine Information and Data Acquisition System
Tripno 1027 of the Zeeleeuw from 2006-01-23 07:41:22 to 2006-01-23 14:12:29
Back to CruiseResearch ActivitiesStationsMapUnderway DataData graphs

EquipmentUnitsComments
TimeDGPSUTC
LatitudeDGPSDM.mWGS84
LongitudeDGPSDM.mWGS84
SpeedMeteo Stationm/sRelative wind speed
DirectionMeteo StationdegRelative wind direction
TemperatureMeteo Stationdeg CelciusAir temperature
PressureMeteo StationPaAtmospheric pressure
HumidityMeteo Station%Relative humidity
Missing or incorrect values are displayed as -999
Metereological data collected by the RV Zeeleeuw from 2006-01-23 07:10:03 to 2006-01-23 14:18:58
Time Latitude Longitude Speed Direction Temperature Pressure Humidity
2006-01-23 07:11 51°13.598 2°56.096 -999 350 -0.1 103750 81
2006-01-23 07:12 51°13.598 2°56.096 -999 358 -999 103750 81
2006-01-23 07:13 51°13.599 2°56.095 -999 62 -999 -999 -999
2006-01-23 07:14 51°13.599 2°56.094 -999 357 -0.1 103750 81
2006-01-23 07:15 51°13.599 2°56.095 -999 9 -0.1 103750 80
2006-01-23 07:16 51°13.599 2°56.095 -999 1 -999 103750 81
2006-01-23 07:17 51°13.599 2°56.094 -999 356 -999 103750 81
2006-01-23 07:18 51°13.598 2°56.095 -999 349 -999 103750 80
2006-01-23 07:19 51°13.6 2°56.095 -999 346 -999 103750 80
2006-01-23 07:20 51°13.599 2°56.095 -999 -999 -999 103750 80
2006-01-23 07:21 51°13.598 2°56.094 -999 5 -999 103750 80
2006-01-23 07:22 51°13.599 2°56.093 -999 360 -999 103750 80
2006-01-23 07:23 51°13.599 2°56.094 -999 22 0.1 103750 81
2006-01-23 07:24 51°13.6 2°56.094 -999 32 0.1 103740 81
2006-01-23 07:25 51°13.601 2°56.094 -999 351 0.1 103750 81
2006-01-23 07:26 51°13.6 2°56.095 -999 345 0.1 103750 80
2006-01-23 07:27 51°13.6 2°56.095 -999 359 0.1 103750 80
2006-01-23 07:28 51°13.6 2°56.094 -999 6 0.1 103750 80
2006-01-23 07:29 51°13.599 2°56.096 -999 339 0.1 103750 79
2006-01-23 07:30 51°13.599 2°56.095 -999 28 0.1 103750 80
2006-01-23 07:31 51°13.599 2°56.095 -999 357 0.1 103750 80
2006-01-23 07:32 51°13.599 2°56.095 -999 -999 0.2 103750 80
2006-01-23 07:33 51°13.599 2°56.096 -999 337 0.2 103750 80
2006-01-23 07:34 51°13.599 2°56.096 -999 2 0.2 103750 80
2006-01-23 07:35 51°13.599 2°56.096 -999 336 0.2 103750 80
2006-01-23 07:36 51°13.6 2°56.095 -999 351 0.2 103740 80
2006-01-23 07:37 51°13.6 2°56.095 -999 352 0.2 103750 80
2006-01-23 07:38 51°13.6 2°56.095 -999 354 0.2 103750 80
2006-01-23 07:39 51°13.599 2°56.096 -999 355 0.2 103750 80
2006-01-23 07:40 51°13.598 2°56.097 -999 2 0.2 103750 80
2006-01-23 07:41 51°13.597 2°56.097 -999 16 0.2 103750 80
2006-01-23 07:42 51°13.604 2°56.064 -999 355 0.2 103750 80
2006-01-23 07:43 51°13.625 2°55.985 -999 356 0.2 103750 80
2006-01-23 07:44 51°13.661 2°55.874 -999 352 0.1 103750 80
2006-01-23 07:45 51°13.698 2°55.758 -999 44 0.2 103750 80
2006-01-23 07:46 51°13.708 2°55.71 -999 77 0.1 103750 80
2006-01-23 07:47 51°13.737 2°55.71 -999 126 0.1 103750 80
2006-01-23 07:48 51°13.802 2°55.659 -999 137 0.1 103750 80
2006-01-23 07:49 51°13.899 2°55.579 -999 99 0.1 103750 80
2006-01-23 07:50 51°14.007 2°55.496 -999 138 0.1 103750 80
2006-01-23 07:51 51°14.114 2°55.421 -999 142 0.1 103750 80
2006-01-23 07:52 51°14.231 2°55.304 -999 117 0.1 103730 80
2006-01-23 07:53 51°14.347 2°55.09 -999 9 0.1 103730 80
2006-01-23 07:54 51°14.475 2°54.884 -999 91 0.2 103730 80
2006-01-23 07:55 51°14.656 2°54.702 -999 64 0.2 103700 80
2006-01-23 07:56 51°14.849 2°54.526 -999 90 0.2 103700 81
2006-01-23 07:57 51°15.05 2°54.347 -999 70 0.1 103710 80
2006-01-23 07:58 51°15.244 2°54.173 -999 83 0.2 103710 82
2006-01-23 07:59 51°15.432 2°54.001 -999 80 0.2 103700 82
2006-01-23 08:00 51°15.629 2°53.824 -999 92 0.2 103710 81
2006-01-23 08:01 51°15.825 2°53.646 -999 110 0.1 103710 80
2006-01-23 08:02 51°16.028 2°53.462 -999 59 0.2 103720 80
2006-01-23 08:03 51°16.224 2°53.285 -999 83 0.2 103710 82
2006-01-23 08:04 51°16.417 2°53.126 -999 78 0.3 103710 82
2006-01-23 08:05 51°16.625 2°52.958 -999 80 0.2 103710 82
2006-01-23 08:06 51°16.818 2°52.8 -999 82 0.2 103710 81
2006-01-23 08:07 51°17.015 2°52.624 -999 81 0.1 103710 80
2006-01-23 08:08 51°17.21 2°52.442 -999 75 0.1 103710 80
2006-01-23 08:09 51°17.403 2°52.23 -999 90 0.1 103710 80
2006-01-23 08:10 51°17.54 2°51.95 -999 330 0.1 103710 80
2006-01-23 08:11 51°17.65 2°51.638 -999 317 0.1 103710 80
2006-01-23 08:12 51°17.754 2°51.323 -999 323 0.1 103710 79
2006-01-23 08:13 51°17.857 2°51.004 -999 323 0.1 103720 79
2006-01-23 08:14 51°17.955 2°50.697 -999 328 0.1 103720 79
2006-01-23 08:15 51°18.051 2°50.376 -999 300 0.1 103720 80
2006-01-23 08:16 51°18.146 2°50.04 -999 307 0.1 103720 80
2006-01-23 08:17 51°18.235 2°49.722 -999 331 0.1 103730 80
2006-01-23 08:18 51°18.325 2°49.402 -999 228 0.1 103710 80
2006-01-23 08:19 51°18.417 2°49.067 -999 325 0.1 103720 79
2006-01-23 08:20 51°18.51 2°48.744 -999 318 0.1 103710 79
2006-01-23 08:21 51°18.601 2°48.423 -999 309 0.1 103720 79
2006-01-23 08:22 51°18.695 2°48.09 -999 289 0.1 103710 79
2006-01-23 08:23 51°18.792 2°47.759 -999 266 0.1 103720 79
2006-01-23 08:24 51°18.884 2°47.444 -999 242 0.1 103720 79
2006-01-23 08:25 51°18.978 2°47.116 -999 257 0.1 103720 80
2006-01-23 08:26 51°19.072 2°46.793 -999 230 0.2 103720 80
2006-01-23 08:27 51°19.164 2°46.481 -999 214 0.2 103720 79
2006-01-23 08:28 51°19.254 2°46.151 -999 59 0.1 103720 79
2006-01-23 08:29 51°19.337 2°45.832 -999 61 0.1 103730 79
2006-01-23 08:30 51°19.425 2°45.508 -999 156 0.1 103720 79
2006-01-23 08:31 51°19.509 2°45.182 -999 100 0.1 103720 79
2006-01-23 08:32 51°19.6 2°44.858 -999 115 0.1 103760 79
2006-01-23 08:33 51°19.686 2°44.534 -999 35 0.2 103770 79
2006-01-23 08:34 51°19.777 2°44.209 -999 33 0.2 103770 80
2006-01-23 08:35 51°19.871 2°43.874 -999 89 0.3 103770 80
2006-01-23 08:36 51°19.961 2°43.561 -999 32 0.3 103760 80
2006-01-23 08:37 51°20.053 2°43.238 -999 344 0.3 103760 80
2006-01-23 08:38 51°20.144 2°42.915 -999 350 0.4 103730 80
2006-01-23 08:39 51°20.23 2°42.588 -999 321 0.3 103730 80
2006-01-23 08:40 51°20.314 2°42.258 -999 227 0.3 103720 80
2006-01-23 08:41 51°20.394 2°41.927 -999 309 0.3 103730 80
2006-01-23 08:42 51°20.476 2°41.596 -999 326 0.4 103720 80
2006-01-23 08:43 51°20.555 2°41.264 -999 313 0.4 103720 80
2006-01-23 08:44 51°20.634 2°40.92 -999 304 0.4 103720 80
2006-01-23 08:45 51°20.692 2°40.59 -999 305 0.4 103730 80
2006-01-23 08:46 51°20.725 2°40.24 -999 313 0.4 103730 80
2006-01-23 08:47 51°20.753 2°39.89 -999 318 0.4 103730 80
2006-01-23 08:48 51°20.77 2°39.537 -999 231 0.4 103730 79
2006-01-23 08:49 51°20.787 2°39.174 -999 310 0.4 103720 80
2006-01-23 08:50 51°20.806 2°38.832 -999 292 0.4 103730 79
2006-01-23 08:51 51°20.823 2°38.466 -999 280 0.4 103730 79
2006-01-23 08:52 51°20.84 2°38.123 -999 306 0.4 103730 79
2006-01-23 08:53 51°20.857 2°37.757 -999 316 0.4 103720 79
2006-01-23 08:54 51°20.867 2°37.415 -999 316 0.5 103720 80
2006-01-23 08:55 51°20.88 2°37.064 -999 309 0.4 103730 79
2006-01-23 08:56 51°20.894 2°36.713 -999 307 0.5 103720 80
2006-01-23 08:57 51°20.908 2°36.361 -999 310 0.5 103720 80
2006-01-23 08:58 51°20.923 2°36.01 -999 305 0.4 103750 79
2006-01-23 08:59 51°20.938 2°35.659 -999 304 0.5 103760 80
2006-01-23 09:00 51°20.955 2°35.307 -999 301 0.4 103720 79
2006-01-23 09:01 51°20.972 2°34.957 -999 298 0.5 103750 79
2006-01-23 09:02 51°20.992 2°34.594 -999 286 0.5 103750 79
2006-01-23 09:03 51°21.019 2°34.257 -999 278 0.5 103750 79
2006-01-23 09:04 51°21.045 2°33.909 -999 279 0.5 103760 79
2006-01-23 09:05 51°21.14 2°33.595 -999 93 0.5 103760 79
2006-01-23 09:06 51°21.322 2°33.405 -999 102 0.5 103760 80
2006-01-23 09:07 51°21.52 2°33.207 -999 87 0.6 103760 80
2006-01-23 09:08 51°21.714 2°33.031 -999 99 0.5 103760 80
2006-01-23 09:09 51°21.91 2°32.862 -999 75 0.5 103760 79
2006-01-23 09:10 51°22.109 2°32.69 -999 86 0.6 103760 80
2006-01-23 09:11 51°22.314 2°32.516 -999 65 0.6 103760 80
2006-01-23 09:12 51°22.483 2°32.298 -999 42 0.6 103760 80
2006-01-23 09:13 51°22.549 2°31.974 -999 314 0.6 103750 79
2006-01-23 09:14 51°22.568 2°31.609 -999 308 0.6 103760 80
2006-01-23 09:15 51°22.581 2°31.266 -999 310 0.6 103750 79
2006-01-23 09:16 51°22.589 2°30.898 -999 299 0.6 103750 79
2006-01-23 09:17 51°22.593 2°30.554 -999 298 0.6 103750 79
2006-01-23 09:18 51°22.595 2°30.188 -999 310 0.6 103760 79
2006-01-23 09:19 51°22.587 2°29.847 -999 297 0.6 103730 78
2006-01-23 09:20 51°22.575 2°29.495 -999 285 0.6 103760 79
2006-01-23 09:21 51°22.565 2°29.131 -999 281 0.6 103730 79
2006-01-23 09:22 51°22.556 2°28.789 -999 229 0.7 103730 80
2006-01-23 09:23 51°22.545 2°28.427 -999 290 0.7 103710 80
2006-01-23 09:24 51°22.544 2°28.087 -999 283 0.8 103710 81
2006-01-23 09:25 51°22.545 2°27.721 -999 300 0.8 103710 81
2006-01-23 09:26 51°22.543 2°27.378 -999 287 0.8 103710 79
2006-01-23 09:27 51°22.54 2°27.011 -999 306 0.8 103720 79
2006-01-23 09:28 51°22.538 2°26.656 -999 306 0.8 103720 79
2006-01-23 09:29 51°22.539 2°26.3 -999 297 0.7 103710 79
2006-01-23 09:30 51°22.577 2°25.953 -999 265 0.8 103730 80
2006-01-23 09:31 51°22.669 2°25.639 -999 200 0.9 103730 80
2006-01-23 09:32 51°22.829 2°25.373 -999 83 0.9 103720 80
2006-01-23 09:33 51°23.045 2°25.343 -999 60 0.8 103710 79
2006-01-23 09:34 51°23.272 2°25.41 -999 79 0.8 103700 80
2006-01-23 09:35 51°23.489 2°25.483 -999 72 0.7 103710 79
2006-01-23 09:36 51°23.72 2°25.557 -999 59 0.6 103700 79
2006-01-23 09:37 51°23.936 2°25.625 -999 70 0.7 103690 79
2006-01-23 09:38 51°24.161 2°25.692 -999 66 0.6 103710 78
2006-01-23 09:39 51°24.395 2°25.759 -999 66 0.6 103710 78
2006-01-23 09:40 51°24.613 2°25.821 -999 53 0.8 103710 80
2006-01-23 09:41 51°24.845 2°25.884 -999 66 0.9 103710 81
2006-01-23 09:42 51°25.061 2°25.94 -999 60 1 103700 81
2006-01-23 09:43 51°25.29 2°25.997 -999 61 0.9 103700 80
2006-01-23 09:44 51°25.509 2°26.053 -999 69 0.8 103690 80
2006-01-23 09:45 51°25.732 2°26.111 -999 68 0.7 103700 80
2006-01-23 09:46 51°25.96 2°26.099 -999 63 0.7 103710 80
2006-01-23 09:47 51°26.177 2°26.051 -999 65 0.7 103720 80
2006-01-23 09:48 51°26.41 2°26.004 -999 63 0.6 103720 79
2006-01-23 09:49 51°26.632 2°25.961 -999 64 0.7 103710 80
2006-01-23 09:50 51°26.862 2°25.917 -999 69 0.6 103720 78
2006-01-23 09:51 51°27.085 2°25.876 -999 69 0.7 103750 79
2006-01-23 09:52 51°27.305 2°25.833 -999 90 0.7 103710 79
2006-01-23 09:53 51°27.537 2°25.79 -999 82 0.7 103720 80
2006-01-23 09:54 51°27.757 2°25.752 -999 76 0.8 103720 80
2006-01-23 09:55 51°27.992 2°25.711 -999 70 0.9 103720 81
2006-01-23 09:56 51°28.216 2°25.671 -999 62 0.9 103710 81
2006-01-23 09:57 51°28.446 2°25.631 -999 68 0.8 103720 80
2006-01-23 09:58 51°28.669 2°25.592 -999 53 0.8 103720 80
2006-01-23 09:59 51°28.895 2°25.55 -999 67 0.9 103710 80
2006-01-23 10:00 51°29.121 2°25.509 -999 75 0.9 103750 80
2006-01-23 10:01 51°29.351 2°25.464 -999 67 0.9 103740 80
2006-01-23 10:02 51°29.576 2°25.421 -999 84 0.8 103760 79
2006-01-23 10:03 51°29.802 2°25.381 -999 87 0.8 103770 79
2006-01-23 10:04 51°30.028 2°25.341 -999 88 0.8 103770 79
2006-01-23 10:05 51°30.25 2°25.332 -999 76 0.9 103750 80
2006-01-23 10:06 51°30.478 2°25.353 -999 64 0.8 103740 79
2006-01-23 10:07 51°30.7 2°25.394 -999 65 0.8 103750 79
2006-01-23 10:08 51°30.916 2°25.493 -999 68 0.8 103750 79
2006-01-23 10:09 51°31.13 2°25.587 -999 72 0.8 103740 78
2006-01-23 10:10 51°31.342 2°25.697 -999 59 0.8 103740 79
2006-01-23 10:11 51°31.542 2°25.853 -999 54 0.8 103740 79
2006-01-23 10:12 51°31.739 2°26.004 -999 60 0.9 103740 79
2006-01-23 10:13 51°31.941 2°26.163 -999 63 0.9 103730 79
2006-01-23 10:14 51°32.138 2°26.327 -999 57 0.9 103750 78
2006-01-23 10:15 51°32.331 2°26.5 -999 57 1 103730 80
2006-01-23 10:16 51°32.52 2°26.682 -999 54 1 103730 80
2006-01-23 10:17 51°32.709 2°26.867 -999 54 0.9 103730 79
2006-01-23 10:18 51°32.901 2°27.051 -999 56 0.8 103750 78
2006-01-23 10:19 51°33.088 2°27.231 -999 54 0.8 103740 78
2006-01-23 10:20 51°33.281 2°27.418 -999 58 0.9 103740 79
2006-01-23 10:21 51°33.468 2°27.6 -999 57 0.9 103750 78
2006-01-23 10:22 51°33.662 2°27.786 -999 58 1 103740 78
2006-01-23 10:23 51°33.845 2°27.965 -999 69 1 103740 78
2006-01-23 10:24 51°34.041 2°28.155 -999 49 1 103750 78
2006-01-23 10:25 51°34.227 2°28.335 -999 55 1 103710 78
2006-01-23 10:26 51°34.417 2°28.525 -999 53 0.9 103730 78
2006-01-23 10:27 51°34.606 2°28.709 -999 58 0.9 103730 78
2006-01-23 10:28 51°34.795 2°28.893 -999 58 0.9 103720 79
2006-01-23 10:29 51°34.983 2°29.078 -999 66 1 103720 78
2006-01-23 10:30 51°35.17 2°29.263 -999 51 1 103720 79
2006-01-23 10:31 51°35.358 2°29.449 -999 56 1 103720 79
2006-01-23 10:32 51°35.541 2°29.632 -999 52 1 103720 78
2006-01-23 10:33 51°35.727 2°29.813 -999 52 1 103730 78
2006-01-23 10:34 51°35.92 2°30.003 -999 47 1 103730 78
2006-01-23 10:35 51°36.106 2°30.189 -999 58 1 103730 78
2006-01-23 10:36 51°36.293 2°30.375 -999 52 1.1 103730 78
2006-01-23 10:37 51°36.48 2°30.562 -999 48 1 103720 77
2006-01-23 10:38 51°36.667 2°30.75 -999 57 1.1 103770 77
2006-01-23 10:39 51°36.851 2°30.935 -999 49 1.2 103730 79
2006-01-23 10:40 51°37.04 2°31.124 -999 51 1.2 103720 78
2006-01-23 10:41 51°37.227 2°31.311 -999 51 1.2 103730 77
2006-01-23 10:42 51°37.416 2°31.495 -999 45 1.3 103730 78
2006-01-23 10:43 51°37.603 2°31.679 -999 50 1.2 103730 77
2006-01-23 10:44 51°37.788 2°31.859 -999 50 1.3 103710 78
2006-01-23 10:45 51°37.978 2°32.046 -999 47 1.2 103720 77
2006-01-23 10:46 51°38.165 2°32.229 -999 59 1.2 103720 78
2006-01-23 10:47 51°38.353 2°32.414 -999 54 1.3 103720 79
2006-01-23 10:48 51°38.541 2°32.602 -999 49 1.3 103720 79
2006-01-23 10:49 51°38.728 2°32.784 -999 48 1.2 103720 78
2006-01-23 10:50 51°38.915 2°32.968 -999 45 1.2 103730 79
2006-01-23 10:51 51°39.102 2°33.153 -999 50 1.1 103720 79
2006-01-23 10:52 51°39.29 2°33.336 -999 42 1.2 103720 80
2006-01-23 10:53 51°39.47 2°33.537 -999 50 1.1 103720 80
2006-01-23 10:54 51°39.651 2°33.738 -999 41 1.1 103720 81
2006-01-23 10:55 51°39.832 2°33.939 -999 50 1.1 103750 81
2006-01-23 10:56 51°40.006 2°34.133 -999 54 1 103720 81
2006-01-23 10:57 51°40.193 2°34.339 -999 51 1 103720 81
2006-01-23 10:58 51°40.374 2°34.539 -999 51 0.9 103720 80
2006-01-23 10:59 51°40.555 2°34.736 -999 43 0.9 103720 82
2006-01-23 11:00 51°40.718 2°34.965 -999 44 0.8 103720 81
2006-01-23 11:01 51°40.851 2°35.235 -999 41 0.8 103710 81
2006-01-23 11:02 51°40.935 2°35.536 -999 33 0.8 103720 81
2006-01-23 11:03 51°40.978 2°35.881 -999 26 0.8 103720 81
2006-01-23 11:04 51°40.988 2°36.214 -999 14 0.9 103730 81
2006-01-23 11:05 51°40.93 2°36.536 -999 21 0.9 103730 81
2006-01-23 11:06 51°40.877 2°36.866 -999 5 0.9 103740 81
2006-01-23 11:07 51°40.814 2°37.193 -999 5 0.9 103740 81
2006-01-23 11:08 51°40.725 2°37.503 -999 360 0.9 103740 82
2006-01-23 11:09 51°40.639 2°37.816 -999 13 0.9 103730 81
2006-01-23 11:10 51°40.551 2°38.129 -999 13 0.9 103750 81
2006-01-23 11:11 51°40.457 2°38.437 -999 10 0.8 103730 81
2006-01-23 11:12 51°40.352 2°38.738 -999 7 1 103740 82
2006-01-23 11:13 51°40.248 2°39.038 -999 6 0.9 103730 81
2006-01-23 11:14 51°40.146 2°39.339 -999 8 0.9 103730 81
2006-01-23 11:15 51°40.037 2°39.638 -999 8 0.9 103730 82
2006-01-23 11:16 51°39.923 2°39.929 -999 359 0.9 103730 82
2006-01-23 11:17 51°39.81 2°40.222 -999 1 0.9 103730 82
2006-01-23 11:18 51°39.696 2°40.514 -999 3 0.9 103730 82
2006-01-23 11:19 51°39.581 2°40.805 -999 360 0.8 103730 81
2006-01-23 11:20 51°39.467 2°41.081 -999 357 0.8 103730 81
2006-01-23 11:21 51°39.304 2°41.32 -999 5 0.9 103720 82
2006-01-23 11:22 51°39.145 2°41.549 -999 2 0.9 103720 82
2006-01-23 11:23 51°38.967 2°41.735 -999 352 0.9 103740 82
2006-01-23 11:24 51°38.765 2°41.862 -999 343 0.9 103720 82
2006-01-23 11:25 51°38.554 2°41.941 -999 334 0.9 103710 82
2006-01-23 11:26 51°38.335 2°41.957 -999 337 0.9 103710 82
2006-01-23 11:27 51°38.121 2°41.955 -999 339 0.9 103710 82
2006-01-23 11:28 51°37.91 2°41.825 -999 322 0.9 103710 82
2006-01-23 11:29 51°37.74 2°41.585 -999 317 1 103710 83
2006-01-23 11:30 51°37.59 2°41.306 -999 314 0.9 103720 82
2006-01-23 11:31 51°37.486 2°40.983 -999 314 0.9 103750 82
2006-01-23 11:32 51°37.478 2°40.627 -999 333 0.9 103750 82
2006-01-23 11:33 51°37.478 2°40.242 -999 299 0.9 103760 82
2006-01-23 11:34 51°37.474 2°39.872 -999 316 1 103750 82
2006-01-23 11:35 51°37.477 2°39.506 -999 316 1 103750 82
2006-01-23 11:36 51°37.481 2°39.138 -999 318 1 103750 81
2006-01-23 11:37 51°37.497 2°38.771 -999 351 1.1 103750 82
2006-01-23 11:38 51°37.509 2°38.407 -999 342 1.2 103750 82
2006-01-23 11:39 51°37.52 2°38.039 -999 337 1.2 103740 82
2006-01-23 11:40 51°37.522 2°37.673 -999 331 1.2 103750 82
2006-01-23 11:41 51°37.524 2°37.305 -999 317 1.2 103740 82
2006-01-23 11:42 51°37.527 2°36.936 -999 317 1.2 103740 81
2006-01-23 11:43 51°37.532 2°36.567 -999 320 1.3 103730 82
2006-01-23 11:44 51°37.534 2°36.195 -999 315 1.2 103740 82
2006-01-23 11:45 51°37.522 2°35.831 -999 303 1.3 103740 82
2006-01-23 11:46 51°37.442 2°35.489 -999 313 1.4 103730 82
2006-01-23 11:47 51°37.331 2°35.165 -999 313 1.4 103720 81
2006-01-23 11:48 51°37.221 2°34.837 -999 230 1.3 103720 80
2006-01-23 11:49 51°37.111 2°34.507 -999 321 1.2 103720 80
2006-01-23 11:50 51°36.992 2°34.188 -999 310 1.2 103720 80
2006-01-23 11:51 51°36.804 2°33.972 -999 328 1.2 103700 81
2006-01-23 11:52 51°36.601 2°33.806 -999 321 1.1 103700 81
2006-01-23 11:53 51°36.395 2°33.649 -999 317 1.2 103690 82
2006-01-23 11:54 51°36.183 2°33.515 -999 327 1.2 103680 82
2006-01-23 11:55 51°35.969 2°33.39 -999 324 1.1 103690 82
2006-01-23 11:56 51°35.756 2°33.259 -999 319 1.1 103690 82
2006-01-23 11:57 51°35.542 2°33.134 -999 325 1 103690 81
2006-01-23 11:58 51°35.328 2°33.005 -999 330 1.1 103680 81
2006-01-23 11:59 51°35.113 2°32.889 -999 331 1.1 103680 81
2006-01-23 12:00 51°34.898 2°32.775 -999 317 1.2 103680 83
2006-01-23 12:01 51°34.681 2°32.658 -999 324 1.2 103680 82
2006-01-23 12:02 51°34.477 2°32.498 -999 313 1.2 103680 82
2006-01-23 12:03 51°34.265 2°32.365 -999 314 1.3 103670 82
2006-01-23 12:04 51°34.05 2°32.25 -999 320 1.3 103670 82
2006-01-23 12:05 51°33.833 2°32.135 -999 41 1.3 103680 82
2006-01-23 12:06 51°33.615 2°32.027 -999 316 1.3 103670 82
2006-01-23 12:07 51°33.396 2°31.921 -999 316 1.3 103680 83
2006-01-23 12:08 51°33.178 2°31.814 -999 320 1.3 103670 82
2006-01-23 12:09 51°32.955 2°31.816 -999 332 1.3 103670 82
2006-01-23 12:10 51°32.731 2°31.832 -999 338 1.3 103670 81
2006-01-23 12:11 51°32.506 2°31.839 -999 336 1.4 103660 80
2006-01-23 12:12 51°32.28 2°31.85 -999 331 1.4 103640 80
2006-01-23 12:13 51°32.055 2°31.86 -999 332 1.5 103630 81
2006-01-23 12:14 51°31.829 2°31.878 -999 331 1.5 103640 80
2006-01-23 12:15 51°31.602 2°31.888 -999 337 1.5 103640 80
2006-01-23 12:16 51°31.384 2°31.953 -999 348 1.5 103630 80
2006-01-23 12:17 51°31.192 2°32.118 -999 339 1.6 103640 80
2006-01-23 12:18 51°31.002 2°32.297 -999 345 1.6 103630 80
2006-01-23 12:19 51°30.814 2°32.478 -999 347 1.6 103630 80
2006-01-23 12:20 51°30.626 2°32.658 -999 349 1.6 103630 79
2006-01-23 12:21 51°30.439 2°32.839 -999 338 1.7 103630 80
2006-01-23 12:22 51°30.282 2°33.069 -999 352 1.6 103630 79
2006-01-23 12:23 51°30.173 2°33.356 -999 355 1.6 103630 79
2006-01-23 12:24 51°30.072 2°33.644 -999 5 1.6 103630 79
2006-01-23 12:25 51°29.964 2°33.92 -999 8 1.6 103630 79
2006-01-23 12:26 51°29.866 2°34.219 -999 2 1.6 103630 79
2006-01-23 12:27 51°29.809 2°34.542 -999 16 1.6 103630 79
2006-01-23 12:28 51°29.779 2°34.876 -999 12 1.5 103620 79
2006-01-23 12:29 51°29.748 2°35.21 -999 11 1.5 103630 79
2006-01-23 12:30 51°29.721 2°35.543 -999 14 1.5 103630 80
2006-01-23 12:31 51°29.692 2°35.876 -999 13 1.5 103630 79
2006-01-23 12:32 51°29.658 2°36.206 -999 15 1.5 103630 79
2006-01-23 12:33 51°29.632 2°36.534 -999 15 1.4 103630 80
2006-01-23 12:34 51°29.554 2°36.838 -999 360 1.5 103630 81
2006-01-23 12:35 51°29.424 2°37.103 -999 356 1.4 103620 80
2006-01-23 12:36 51°29.282 2°37.359 -999 1 1.5 103620 81
2006-01-23 12:37 51°29.124 2°37.593 -999 344 1.4 103620 80
2006-01-23 12:38 51°28.93 2°37.764 -999 345 1.4 103650 80
2006-01-23 12:39 51°28.74 2°37.942 -999 352 1.4 103610 80
2006-01-23 12:40 51°28.547 2°38.11 -999 342 1.4 103630 80
2006-01-23 12:41 51°28.337 2°38.222 -999 340 1.4 103640 80
2006-01-23 12:42 51°28.128 2°38.342 -999 342 1.4 103640 80
2006-01-23 12:43 51°27.916 2°38.451 -999 345 1.4 103620 80
2006-01-23 12:44 51°27.704 2°38.567 -999 340 1.4 103640 80
2006-01-23 12:45 51°27.492 2°38.682 -999 338 1.4 103640 80
2006-01-23 12:46 51°27.279 2°38.794 -999 343 1.3 103640 80
2006-01-23 12:47 51°27.066 2°38.904 -999 342 1.4 103640 80
2006-01-23 12:48 51°26.851 2°39.009 -999 336 1.4 103640 80
2006-01-23 12:49 51°26.633 2°39.103 -999 340 1.3 103640 80
2006-01-23 12:50 51°26.415 2°39.195 -999 345 1.3 103640 80
2006-01-23 12:51 51°26.2 2°39.287 -999 341 1.3 103640 79
2006-01-23 12:52 51°25.983 2°39.372 -999 345 1.2 103630 79
2006-01-23 12:53 51°25.766 2°39.458 -999 347 1.3 103650 79
2006-01-23 12:54 51°25.56 2°39.584 -999 346 1.4 103640 78
2006-01-23 12:55 51°25.359 2°39.728 -999 347 1.3 103630 77
2006-01-23 12:56 51°25.161 2°39.873 -999 352 1.3 103640 77
2006-01-23 12:57 51°24.964 2°40.018 -999 354 1.3 103650 76
2006-01-23 12:58 51°24.762 2°40.147 -999 348 1.3 103650 76
2006-01-23 12:59 51°24.553 2°40.264 -999 343 1.3 103630 76
2006-01-23 13:00 51°24.347 2°40.39 -999 348 1.3 103640 76
2006-01-23 13:01 51°24.137 2°40.501 -999 342 1.3 103640 76
2006-01-23 13:02 51°23.917 2°40.566 -999 341 1.3 103630 77
2006-01-23 13:03 51°23.705 2°40.631 -999 344 1.2 103630 77
2006-01-23 13:04 51°23.477 2°40.677 -999 337 1.3 103630 77
2006-01-23 13:05 51°23.251 2°40.624 -999 340 1.3 103630 77
2006-01-23 13:06 51°23.026 2°40.537 -999 334 1.3 103640 77
2006-01-23 13:07 51°22.816 2°40.379 -999 43 1.2 103640 77
2006-01-23 13:08 51°22.615 2°40.182 -999 325 1.2 103630 77
2006-01-23 13:09 51°22.415 2°39.987 -999 327 1.2 103630 77
2006-01-23 13:10 51°22.209 2°39.805 -999 321 1.2 103630 77
2006-01-23 13:11 51°21.986 2°39.737 -999 338 1.2 103630 77
2006-01-23 13:12 51°21.784 2°39.848 -999 349 1.2 103630 77
2006-01-23 13:13 51°21.595 2°40.019 -999 350 1.3 103620 76
2006-01-23 13:14 51°21.406 2°40.192 -999 346 1.4 103620 77
2006-01-23 13:15 51°21.256 2°40.424 -999 359 1.4 103620 76
2006-01-23 13:16 51°21.125 2°40.686 -999 1 1.3 103610 75
2006-01-23 13:17 51°20.99 2°40.941 -999 357 1.3 103620 75
2006-01-23 13:18 51°20.859 2°41.199 -999 353 1.4 103620 75
2006-01-23 13:19 51°20.762 2°41.473 -999 356 1.4 103600 75
2006-01-23 13:20 51°20.597 2°41.69 -999 358 1.4 103610 75
2006-01-23 13:21 51°20.468 2°41.946 -999 3 1.4 103610 75
2006-01-23 13:22 51°20.373 2°42.237 -999 2 1.4 103610 75
2006-01-23 13:23 51°20.272 2°42.524 -999 3 1.5 103620 75
2006-01-23 13:24 51°20.179 2°42.817 -999 4 1.5 103600 75
2006-01-23 13:25 51°20.079 2°43.105 -999 358 1.5 103610 75
2006-01-23 13:26 51°19.98 2°43.395 -999 359 1.5 103610 75
2006-01-23 13:27 51°19.884 2°43.674 -999 2 1.6 103610 75
2006-01-23 13:28 51°19.802 2°43.984 -999 1 1.6 103610 75
2006-01-23 13:29 51°19.721 2°44.282 -999 12 1.5 103600 73
2006-01-23 13:30 51°19.644 2°44.585 -999 8 1.6 103610 72
2006-01-23 13:31 51°19.59 2°44.9 -999 11 1.6 103600 72
2006-01-23 13:32 51°19.506 2°45.199 -999 6 1.6 103600 73
2006-01-23 13:33 51°19.442 2°45.504 -999 9 1.6 103600 72
2006-01-23 13:34 51°19.376 2°45.813 -999 5 1.7 103600 72
2006-01-23 13:35 51°19.307 2°46.12 -999 5 1.6 103600 70
2006-01-23 13:36 51°19.237 2°46.426 -999 3 1.7 103590 71
2006-01-23 13:37 51°19.164 2°46.731 -999 6 1.7 103600 70
2006-01-23 13:38 51°19.082 2°47.031 -999 2 1.7 103600 70
2006-01-23 13:39 51°18.998 2°47.329 -999 7 1.8 103610 70
2006-01-23 13:40 51°18.912 2°47.628 -999 3 1.7 103600 68
2006-01-23 13:41 51°18.825 2°47.926 -999 7 1.8 103610 69
2006-01-23 13:42 51°18.738 2°48.213 -999 1 1.8 103600 68
2006-01-23 13:43 51°18.648 2°48.522 -999 10 1.8 103600 67
2006-01-23 13:44 51°18.561 2°48.819 -999 5 1.8 103590 67
2006-01-23 13:45 51°18.472 2°49.114 -999 2 1.8 103600 67
2006-01-23 13:46 51°18.38 2°49.411 -999 2 1.9 103590 67
2006-01-23 13:47 51°18.288 2°49.708 -999 3 1.9 103600 67
2006-01-23 13:48 51°18.195 2°50.004 -999 8 1.9 103590 67
2006-01-23 13:49 51°18.098 2°50.296 -999 8 1.9 103600 65
2006-01-23 13:50 51°17.998 2°50.586 -999 7 1.9 103600 65
2006-01-23 13:51 51°17.89 2°50.873 -999 7 2 103600 65
2006-01-23 13:52 51°17.78 2°51.156 -999 2 2 103590 64
2006-01-23 13:53 51°17.671 2°51.443 -999 1 2 103590 64
2006-01-23 13:54 51°17.554 2°51.728 -999 1 2 103600 65
2006-01-23 13:55 51°17.418 2°52.002 -999 358 2 103590 65
2006-01-23 13:56 51°17.235 2°52.197 -999 347 2 103590 64
2006-01-23 13:57 51°17.029 2°52.339 -999 349 2.1 103590 64
2006-01-23 13:58 51°16.834 2°52.489 -999 343 2.2 103590 62
2006-01-23 13:59 51°16.617 2°52.633 -999 342 2.2 103590 63
2006-01-23 14:00 51°16.407 2°52.77 -999 344 2.2 103590 63
2006-01-23 14:01 51°16.201 2°52.895 -999 347 2.2 103580 64
2006-01-23 14:02 51°15.996 2°53.021 -999 348 2.3 103590 63
2006-01-23 14:03 51°15.792 2°53.151 -999 349 2.3 103590 62
2006-01-23 14:04 51°15.636 2°53.253 -999 341 2.4 103590 63
2006-01-23 14:05 51°15.45 2°53.349 -999 347 2.3 103590 62
2006-01-23 14:06 51°15.254 2°53.472 -999 352 2.4 103590 63
2006-01-23 14:07 51°15.095 2°53.685 -999 3 2.4 103580 63
2006-01-23 14:08 51°14.933 2°53.898 -999 352 2.4 103590 63
2006-01-23 14:09 51°14.771 2°54.119 -999 354 2.4 103590 63
2006-01-23 14:10 51°14.626 2°54.346 -999 354 2.4 103580 61
2006-01-23 14:11 51°14.509 2°54.629 -999 356 2.4 103570 60
2006-01-23 14:12 51°14.402 2°54.911 -999 6 2.4 103580 61
2006-01-23 14:13 51°14.304 2°55.186 -999 352 2.4 103590 59
2006-01-23 14:14 51°14.178 2°55.368 -999 344 2.4 103580 59
2006-01-23 14:15 51°14.049 2°55.466 -999 346 2.4 103590 62
2006-01-23 14:16 51°13.945 2°55.543 -999 348 2.4 103590 61
2006-01-23 14:17 51°13.845 2°55.621 -999 357 2.5 103590 59
2006-01-23 14:18 51°13.771 2°55.69 -999 348 2.5 103590 57